createdAt,value
2022-10-19T00:00:23.122Z,97331.53
2022-10-19T00:02:49.481Z,97339.09
2022-10-19T00:05:15.895Z,97332.09
2022-10-19T00:07:42.432Z,97329.16
2022-10-19T00:10:09.262Z,97330.00
2022-10-19T00:12:35.877Z,97323.53
2022-10-19T00:15:02.362Z,97327.00
2022-10-19T00:17:28.935Z,97321.38
2022-10-19T00:19:55.621Z,97327.78
2022-10-19T00:22:21.979Z,97322.19
2022-10-19T00:24:48.380Z,97319.06
2022-10-19T00:27:14.943Z,97315.72
2022-10-19T00:29:41.279Z,97325.03
2022-10-19T00:32:07.613Z,97332.31
2022-10-19T00:34:33.956Z,97321.00
2022-10-19T00:37:00.523Z,97323.16
2022-10-19T00:39:27.017Z,97323.28
2022-10-19T00:41:53.370Z,97320.78
2022-10-19T00:44:19.638Z,97317.50
2022-10-19T00:46:50.187Z,97319.50
2022-10-19T00:49:23.374Z,97315.75
2022-10-19T00:51:54.826Z,97309.94
2022-10-19T00:54:25.681Z,97313.91
2022-10-19T00:56:54.797Z,97311.53
2022-10-19T00:59:24.738Z,97306.47
2022-10-19T01:01:52.545Z,97313.72
2022-10-19T01:04:21.952Z,97304.44
2022-10-19T01:06:48.608Z,97306.06
2022-10-19T01:09:15.010Z,97310.72
2022-10-19T01:11:47.471Z,97309.06
2022-10-19T01:14:26.481Z,97305.28
2022-10-19T01:17:01.319Z,97305.44
2022-10-19T01:19:51.380Z,97300.09
2022-10-19T01:22:37.939Z,97286.94
2022-10-19T01:25:41.474Z,97291.91
2022-10-19T01:28:51.765Z,97287.78
2022-10-19T01:31:37.685Z,97288.16
2022-10-19T01:34:25.846Z,97295.44
2022-10-19T01:37:07.807Z,97291.28
2022-10-19T01:39:49.087Z,97294.81
2022-10-19T01:42:28.156Z,97287.16
2022-10-19T01:45:26.342Z,97287.63
2022-10-19T01:48:09.954Z,97282.34
2022-10-19T01:50:43.197Z,97285.84
2022-10-19T01:53:12.314Z,97280.56
2022-10-19T01:55:43.208Z,97280.53
2022-10-19T01:58:13.828Z,97269.97
2022-10-19T02:00:44.996Z,97272.63
2022-10-19T02:03:12.767Z,97268.41
2022-10-19T02:05:41.666Z,97270.88
2022-10-19T02:08:17.159Z,97277.78
2022-10-19T02:10:45.539Z,97273.81
2022-10-19T02:13:15.165Z,97263.88
2022-10-19T02:15:47.340Z,97267.56
2022-10-19T02:18:17.734Z,97263.88
2022-10-19T02:20:44.518Z,97263.22
2022-10-19T02:23:12.228Z,97268.47
2022-10-19T02:25:38.678Z,97265.50
2022-10-19T02:28:05.743Z,97270.75
2022-10-19T02:30:32.149Z,97267.47
2022-10-19T02:32:58.635Z,97263.97
2022-10-19T02:35:24.957Z,97259.00
2022-10-19T02:37:51.592Z,97267.13
2022-10-19T02:40:18.135Z,97262.66
2022-10-19T02:42:50.974Z,97265.16
2022-10-19T02:45:27.447Z,97266.34
2022-10-19T02:48:02.044Z,97265.97
2022-10-19T02:50:28.655Z,97263.50
2022-10-19T02:52:55.006Z,97265.78
2022-10-19T02:55:21.432Z,97263.72
2022-10-19T02:57:47.857Z,97266.72
2022-10-19T03:00:14.644Z,97257.94
2022-10-19T03:02:41.045Z,97264.22
2022-10-19T03:05:09.146Z,97250.28
2022-10-19T03:07:36.355Z,97252.06
2022-10-19T03:10:03.242Z,97245.78
2022-10-19T03:12:29.791Z,97239.81
2022-10-19T03:14:56.123Z,97235.50
2022-10-19T03:17:22.439Z,97233.16
2022-10-19T03:19:48.759Z,97229.44
2022-10-19T03:22:15.243Z,97238.47
2022-10-19T03:24:41.564Z,97235.91
2022-10-19T03:27:08.122Z,97231.34
2022-10-19T03:29:34.448Z,97238.63
2022-10-19T03:32:00.767Z,97233.19
2022-10-19T03:34:27.079Z,97230.69
2022-10-19T03:36:53.451Z,97231.88
2022-10-19T03:39:19.766Z,97231.22
2022-10-19T03:41:46.311Z,97237.03
2022-10-19T03:44:12.750Z,97233.06
2022-10-19T03:46:40.019Z,97231.72
2022-10-19T03:49:07.154Z,97222.75
2022-10-19T03:51:34.279Z,97229.34
2022-10-19T03:54:05.471Z,97229.03
2022-10-19T03:56:32.623Z,97226.38
2022-10-19T03:59:00.895Z,97224.06
2022-10-19T04:01:36.142Z,97232.72
2022-10-19T04:04:06.518Z,97223.25
2022-10-19T04:06:35.548Z,97225.53
2022-10-19T04:09:02.960Z,97232.41
2022-10-19T04:11:31.144Z,97229.69
2022-10-19T04:13:58.541Z,97241.13
2022-10-19T04:16:27.037Z,97241.53
2022-10-19T04:18:53.451Z,97242.41
2022-10-19T04:21:23.609Z,97246.03
2022-10-19T04:23:56.851Z,97245.66
2022-10-19T04:26:23.462Z,97243.38
2022-10-19T04:28:49.822Z,97243.00
2022-10-19T04:31:16.226Z,97237.56
2022-10-19T04:33:42.551Z,97240.06
2022-10-19T04:36:11.407Z,97237.78
2022-10-19T04:38:38.650Z,97227.44
2022-10-19T04:41:08.367Z,97228.09
2022-10-19T04:43:35.415Z,97225.69
2022-10-19T04:46:07.328Z,97227.13
2022-10-19T04:48:36.090Z,97224.53
2022-10-19T04:51:03.031Z,97218.50
2022-10-19T04:53:29.446Z,97219.31
2022-10-19T04:55:56.005Z,97224.06
2022-10-19T04:58:22.485Z,97216.84
2022-10-19T05:00:48.992Z,97220.28
2022-10-19T05:03:15.538Z,97215.16
2022-10-19T05:05:41.930Z,97217.97
2022-10-19T05:08:10.444Z,97214.00
2022-10-19T05:10:38.009Z,97218.50
2022-10-19T05:13:04.540Z,97218.69
2022-10-19T05:15:31.515Z,97209.09
2022-10-19T05:17:58.135Z,97209.16
2022-10-19T05:20:25.065Z,97202.41
2022-10-19T05:22:51.591Z,97210.19
2022-10-19T05:25:18.209Z,97212.88
2022-10-19T05:27:44.589Z,97210.88
2022-10-19T05:30:11.104Z,97210.22
2022-10-19T05:32:37.423Z,97206.75
2022-10-19T05:35:04.008Z,97205.34
2022-10-19T05:37:30.325Z,97207.19
2022-10-19T05:39:56.639Z,97204.41
2022-10-19T05:42:23.041Z,97203.28
2022-10-19T05:44:49.355Z,97209.31
2022-10-19T05:47:15.706Z,97202.25
2022-10-19T05:49:42.028Z,97201.91
2022-10-19T05:52:08.362Z,97201.09
2022-10-19T05:54:35.954Z,97201.94
2022-10-19T05:57:02.766Z,97196.13
2022-10-19T05:59:29.094Z,97196.50
2022-10-19T06:01:55.619Z,97202.78
2022-10-19T06:04:22.151Z,97205.91
2022-10-19T06:06:48.667Z,97202.13
2022-10-19T06:09:15.091Z,97204.25
2022-10-19T06:11:42.689Z,97211.19
2022-10-19T06:14:14.380Z,97209.69
2022-10-19T06:16:41.360Z,97208.66
2022-10-19T06:19:07.667Z,97210.78
2022-10-19T06:21:34.557Z,97203.69
2022-10-19T06:24:05.271Z,97213.81
2022-10-19T06:26:33.216Z,97218.91
2022-10-19T06:29:01.308Z,97210.34
2022-10-19T06:31:29.830Z,97221.22
2022-10-19T06:33:56.411Z,97215.44
2022-10-19T06:36:25.870Z,97210.44
2022-10-19T06:38:53.123Z,97218.38
2022-10-19T06:41:20.840Z,97214.84
2022-10-19T06:43:51.549Z,97215.09
2022-10-19T06:46:23.520Z,97219.28
2022-10-19T06:48:51.590Z,97219.97
2022-10-19T06:51:18.701Z,97226.50
2022-10-19T06:53:45.135Z,97217.97
2022-10-19T06:56:11.576Z,97222.00
2022-10-19T06:58:38.441Z,97217.63
2022-10-19T07:01:07.795Z,97226.19
2022-10-19T07:03:34.736Z,97232.03
2022-10-19T07:06:03.972Z,97233.59
2022-10-19T07:08:32.755Z,97234.59
2022-10-19T07:11:02.075Z,97229.28
2022-10-19T07:13:30.087Z,97242.06
2022-10-19T07:16:02.651Z,97242.28
2022-10-19T07:18:29.443Z,97240.13
2022-10-19T07:21:01.268Z,97242.09
2022-10-19T07:23:29.355Z,97240.72
2022-10-19T07:26:00.831Z,97244.06
2022-10-19T07:28:29.481Z,97249.34
2022-10-19T07:30:56.402Z,97242.19
2022-10-19T07:33:22.906Z,97238.09
2022-10-19T07:35:49.543Z,97236.91
2022-10-19T07:38:15.872Z,97230.88
2022-10-19T07:40:44.876Z,97240.84
2022-10-19T07:43:13.709Z,97236.91
2022-10-19T07:45:40.023Z,97232.59
2022-10-19T07:48:06.462Z,97238.50
2022-10-19T07:50:32.939Z,97229.63
2022-10-19T07:52:59.281Z,97228.22
2022-10-19T07:55:25.584Z,97223.97
2022-10-19T07:57:51.902Z,97228.16
2022-10-19T08:00:18.418Z,97237.63
2022-10-19T08:03:05.101Z,97229.72
2022-10-19T08:05:35.221Z,97238.84
2022-10-19T08:08:01.587Z,97235.00
2022-10-19T08:10:28.158Z,97239.28
2022-10-19T08:12:54.490Z,97246.22
2022-10-19T08:15:20.874Z,97234.78
2022-10-19T08:17:47.460Z,97234.09
2022-10-19T08:20:13.870Z,97231.59
2022-10-19T08:22:41.739Z,97228.81
2022-10-19T08:25:08.338Z,97231.94
2022-10-19T08:30:06.526Z,97236.19
2022-10-19T08:32:33.221Z,97232.09
2022-10-19T08:34:59.725Z,97229.84
2022-10-19T08:37:44.066Z,97233.16
2022-10-19T08:40:22.847Z,97224.22
2022-10-19T08:43:01.500Z,97230.22
2022-10-19T08:45:38.873Z,97236.53
2022-10-19T08:48:25.999Z,97228.91
2022-10-19T08:50:53.333Z,97229.56
2022-10-19T08:53:49.806Z,97220.56
2022-10-19T08:56:51.021Z,97220.09
2022-10-19T08:59:21.818Z,97218.31
2022-10-19T09:01:54.854Z,97211.69
2022-10-19T09:04:31.202Z,97211.53
2022-10-19T09:07:09.950Z,97204.63
2022-10-19T09:12:20.408Z,97203.44
2022-10-19T09:15:01.196Z,97203.25
2022-10-19T09:17:28.587Z,97198.44
2022-10-19T09:19:54.972Z,97191.50
2022-10-19T09:22:28.937Z,97199.47
2022-10-19T09:25:03.313Z,97203.25
2022-10-19T09:27:38.921Z,97206.66
2022-10-19T09:30:15.755Z,97202.41
2022-10-19T09:32:42.811Z,97206.09
2022-10-19T09:35:21.816Z,97194.84
2022-10-19T09:37:50.979Z,97194.50
2022-10-19T09:40:21.140Z,97195.22
2022-10-19T09:42:53.059Z,97182.00
2022-10-19T09:45:34.719Z,97185.50
2022-10-19T09:48:12.198Z,97182.53
2022-10-19T09:50:44.001Z,97179.38
2022-10-19T09:53:19.614Z,97177.44
2022-10-19T09:55:50.691Z,97188.34
2022-10-19T09:58:20.093Z,97185.72
2022-10-19T10:00:51.892Z,97182.06
2022-10-19T10:03:28.369Z,97185.38
2022-10-19T10:06:02.388Z,97182.25
2022-10-19T10:08:36.138Z,97182.53
2022-10-19T10:11:13.148Z,97184.72
2022-10-19T10:13:42.485Z,97182.53
2022-10-19T10:16:16.682Z,97182.75
2022-10-19T10:19:07.027Z,97179.06
2022-10-19T10:21:46.276Z,97171.63
2022-10-19T10:24:12.531Z,97178.41
2022-10-19T10:26:44.253Z,97174.91
2022-10-19T10:29:20.686Z,97168.97
2022-10-19T10:32:10.776Z,97165.75
2022-10-19T10:35:02.703Z,97165.78
2022-10-19T10:37:41.385Z,97167.28
2022-10-19T10:40:29.803Z,97165.47
2022-10-19T10:43:32.581Z,97161.75
2022-10-19T10:46:16.771Z,97152.31
2022-10-19T10:48:53.375Z,97163.38
2022-10-19T10:51:27.763Z,97157.75
2022-10-19T10:54:14.906Z,97154.81
2022-10-19T10:56:42.907Z,97156.63
2022-10-19T10:59:19.679Z,97154.66
2022-10-19T11:02:09.773Z,97154.88
2022-10-19T11:04:40.958Z,97150.47
2022-10-19T11:07:18.099Z,97138.25
2022-10-19T11:09:50.924Z,97134.25
2022-10-19T11:12:23.890Z,97130.28
2022-10-19T11:15:23.068Z,97126.44
2022-10-19T11:18:28.542Z,97127.66
2022-10-19T11:21:09.838Z,97126.38
2022-10-19T11:23:51.088Z,97115.59
2022-10-19T11:26:39.378Z,97114.97
2022-10-19T11:29:34.782Z,97115.97
2022-10-19T11:32:01.250Z,97111.53
2022-10-19T11:34:57.216Z,97107.06
2022-10-19T11:38:17.458Z,97103.91
2022-10-19T11:40:54.180Z,97091.84
2022-10-19T11:43:42.816Z,97087.00
2022-10-19T11:46:25.106Z,97078.69
2022-10-19T11:49:03.089Z,97074.06
2022-10-19T11:51:44.559Z,97074.00
2022-10-19T11:54:34.470Z,97069.69
2022-10-19T11:57:12.340Z,97062.06
2022-10-19T11:59:47.479Z,97059.38
2022-10-19T12:02:43.961Z,97058.34
2022-10-19T12:05:19.714Z,97059.47
2022-10-19T12:07:56.617Z,97057.97
2022-10-19T12:10:32.263Z,97055.41
2022-10-19T12:13:05.426Z,97046.91
2022-10-19T12:15:48.485Z,97040.81
2022-10-19T12:18:49.894Z,97034.38
2022-10-19T12:21:29.301Z,97032.81
2022-10-19T12:23:58.821Z,97023.28
2022-10-19T12:26:30.262Z,97020.16
2022-10-19T12:29:04.209Z,97015.09
2022-10-19T12:31:31.427Z,97009.56
2022-10-19T12:34:08.082Z,97003.25
2022-10-19T12:36:54.127Z,96998.72
2022-10-19T12:39:23.363Z,96992.94
2022-10-19T12:41:58.766Z,96984.50
2022-10-19T12:45:03.846Z,96980.03
2022-10-19T12:47:30.390Z,96984.72
2022-10-19T12:49:57.982Z,96982.06
2022-10-19T12:52:41.992Z,96972.31
2022-10-19T12:55:24.915Z,96968.84
2022-10-19T12:58:08.908Z,96961.25
2022-10-19T13:00:39.365Z,96963.06
2022-10-19T13:03:26.218Z,96967.19
2022-10-19T13:06:12.832Z,96962.34
2022-10-19T13:08:48.665Z,96955.38
2022-10-19T13:11:18.507Z,96964.81
2022-10-19T13:13:58.518Z,96942.81
2022-10-19T13:16:28.254Z,96942.88
2022-10-19T13:19:12.878Z,96937.91
2022-10-19T13:21:51.415Z,96947.50
2022-10-19T13:24:26.249Z,96928.25
2022-10-19T13:27:01.998Z,96936.06
2022-10-19T13:29:40.660Z,96925.75
2022-10-19T13:32:33.635Z,96920.22
2022-10-19T13:35:23.608Z,96915.50
2022-10-19T13:38:08.798Z,96918.41
2022-10-19T13:40:56.446Z,96910.22
2022-10-19T13:43:26.895Z,96898.69
2022-10-19T13:45:59.370Z,96902.53
2022-10-19T13:48:38.260Z,96894.38
2022-10-19T13:51:22.911Z,96891.59
2022-10-19T13:54:06.070Z,96888.75
2022-10-19T13:57:32.208Z,96888.50
2022-10-19T14:00:19.742Z,96889.31
2022-10-19T14:03:11.842Z,96881.50
2022-10-19T14:06:13.406Z,96882.09
2022-10-19T14:09:13.633Z,96882.50
2022-10-19T14:11:42.826Z,96885.78
2022-10-19T14:14:09.152Z,96879.25
2022-10-19T14:16:44.388Z,96869.53
2022-10-19T14:19:13.825Z,96872.00
2022-10-19T14:21:40.363Z,96869.50
2022-10-19T14:24:28.999Z,96870.47
2022-10-19T14:26:56.172Z,96871.44
2022-10-19T14:29:22.567Z,96873.63
2022-10-19T14:31:49.132Z,96872.88
2022-10-19T14:34:16.394Z,96878.88
2022-10-19T14:36:48.812Z,96878.50
2022-10-19T14:39:24.338Z,96886.59
2022-10-19T14:41:54.670Z,96885.47
2022-10-19T14:44:38.358Z,96879.22
2022-10-19T14:47:27.768Z,96882.06
2022-10-19T14:49:54.254Z,96882.44
2022-10-19T14:52:31.266Z,96876.66
2022-10-19T14:55:00.964Z,96885.50
2022-10-19T14:57:32.359Z,96877.44
2022-10-19T15:00:21.104Z,96885.91
2022-10-19T15:03:01.854Z,96873.81
2022-10-19T15:05:32.783Z,96872.72
2022-10-19T15:08:11.313Z,96877.78
2022-10-19T15:10:43.156Z,96878.75
2022-10-19T15:13:26.161Z,96878.69
2022-10-19T15:15:54.517Z,96870.03
2022-10-19T15:18:44.134Z,96865.25
2022-10-19T15:21:18.415Z,96857.50
2022-10-19T15:23:50.458Z,96851.63
2022-10-19T15:26:21.223Z,96852.16
2022-10-19T15:28:48.964Z,96854.72
2022-10-19T15:31:21.241Z,96858.94
2022-10-19T15:34:01.881Z,96857.50
2022-10-19T15:36:30.598Z,96857.66
2022-10-19T15:39:17.780Z,96855.03
2022-10-19T15:41:52.166Z,96856.97
2022-10-19T15:44:43.555Z,96852.19
2022-10-19T15:47:16.152Z,96850.25
2022-10-19T15:49:42.433Z,96850.72
2022-10-19T15:52:17.038Z,96850.34
2022-10-19T15:54:43.383Z,96844.81
2022-10-19T15:57:26.174Z,96851.88
2022-10-19T15:59:53.214Z,96855.38
2022-10-19T16:02:19.566Z,96851.97
2022-10-19T16:04:45.896Z,96849.16
2022-10-19T16:07:19.635Z,96845.09
2022-10-19T16:09:45.963Z,96849.78
2022-10-19T16:12:12.331Z,96844.09
2022-10-19T16:14:38.868Z,96845.41
2022-10-19T16:17:05.347Z,96856.28
2022-10-19T16:19:31.723Z,96864.06
2022-10-19T16:21:58.066Z,96862.56
2022-10-19T16:24:24.707Z,96872.19
2022-10-19T16:26:51.092Z,96872.13
2022-10-19T16:29:17.468Z,96876.13
2022-10-19T16:31:43.777Z,96868.06
2022-10-19T16:34:10.106Z,96869.28
2022-10-19T16:36:36.435Z,96866.16
2022-10-19T16:39:04.328Z,96864.78
2022-10-19T16:41:31.611Z,96861.47
2022-10-19T16:43:58.053Z,96866.69
2022-10-19T16:46:24.951Z,96861.53
2022-10-19T16:48:52.693Z,96864.00
2022-10-19T16:51:29.970Z,96869.19
2022-10-19T16:53:57.859Z,96869.41
2022-10-19T16:56:26.481Z,96866.75
2022-10-19T16:58:54.831Z,96874.72
2022-10-19T17:01:21.643Z,96881.38
2022-10-19T17:03:49.423Z,96879.03
2022-10-19T17:06:17.436Z,96876.91
2022-10-19T17:09:23.263Z,96874.69
2022-10-19T17:11:33.246Z,96871.53
2022-10-19T17:14:02.705Z,96874.53
2022-10-19T17:16:31.355Z,96870.53
2022-10-19T17:19:00.180Z,96867.03
2022-10-19T17:21:29.083Z,96861.44
2022-10-19T17:23:58.243Z,96853.28
2022-10-19T17:26:36.551Z,96845.03
2022-10-19T17:29:04.818Z,96849.50
2022-10-19T17:31:31.444Z,96844.56
2022-10-19T17:34:01.872Z,96837.81
2022-10-19T17:36:31.814Z,96850.94
2022-10-19T17:39:11.231Z,96856.47
2022-10-19T17:41:37.913Z,96866.63
2022-10-19T17:44:07.052Z,96870.72
2022-10-19T17:46:35.439Z,96887.88
2022-10-19T17:49:02.838Z,96889.06
2022-10-19T17:51:34.560Z,96899.69
2022-10-19T17:54:04.516Z,96909.97
2022-10-19T17:56:31.204Z,96902.59
2022-10-19T17:58:58.430Z,96907.09
2022-10-19T18:01:25.720Z,96903.38
2022-10-19T18:03:52.309Z,96901.63
2022-10-19T18:06:31.479Z,96901.47
2022-10-19T18:08:59.832Z,96895.78
2022-10-19T18:11:28.939Z,96897.53
2022-10-19T18:13:57.928Z,96894.66
2022-10-19T18:16:28.277Z,96904.19
2022-10-19T18:18:57.088Z,96897.91
2022-10-19T18:21:25.821Z,96903.94
2022-10-19T18:23:53.819Z,96905.25
2022-10-19T18:26:22.361Z,96905.97
2022-10-19T18:28:50.334Z,96905.25
2022-10-19T18:31:19.571Z,96903.84
2022-10-19T18:33:47.624Z,96898.94
2022-10-19T18:36:13.961Z,96895.69
2022-10-19T18:38:40.711Z,96891.81
2022-10-19T18:41:11.603Z,96885.91
2022-10-19T18:43:38.939Z,96889.06
2022-10-19T18:46:05.780Z,96888.59
2022-10-19T18:48:32.428Z,96895.69
2022-10-19T18:51:03.893Z,96892.59
2022-10-19T18:53:30.610Z,96888.31
2022-10-19T18:56:02.378Z,96879.00
2022-10-19T18:58:31.563Z,96883.78
2022-10-19T19:01:13.035Z,96882.56
2022-10-19T19:03:43.162Z,96875.56
2022-10-19T19:06:15.176Z,96874.59
2022-10-19T19:08:41.757Z,96868.25
2022-10-19T19:11:33.102Z,96872.22
2022-10-19T19:14:07.650Z,96870.78
2022-10-19T19:19:48.668Z,96857.25
2022-10-19T19:22:19.406Z,96852.31
2022-10-19T19:24:45.812Z,96850.41
2022-10-19T19:27:12.154Z,96849.22
2022-10-19T19:29:48.661Z,96844.25
2022-10-19T19:32:17.921Z,96854.03
2022-10-19T19:35:00.798Z,96856.66
2022-10-19T19:37:27.129Z,96854.41
2022-10-19T19:39:56.502Z,96858.81
2022-10-19T19:42:27.977Z,96854.16
2022-10-19T19:45:12.357Z,96841.38
2022-10-19T19:48:08.419Z,96834.94
2022-10-19T19:50:36.394Z,96840.72
2022-10-19T19:54:03.385Z,96845.19
2022-10-19T19:56:30.174Z,96845.91
2022-10-19T19:58:59.128Z,96842.09
2022-10-19T20:01:26.883Z,96835.50
2022-10-19T20:03:53.424Z,96835.81
2022-10-19T20:06:23.539Z,96831.88
2022-10-19T20:08:52.358Z,96831.84
2022-10-19T20:11:19.181Z,96839.16
2022-10-19T20:13:46.077Z,96848.44
2022-10-19T20:16:15.533Z,96847.75
2022-10-19T20:18:44.876Z,96842.22
2022-10-19T20:21:12.386Z,96844.34
2022-10-19T20:23:38.890Z,96842.16
2022-10-19T20:26:05.549Z,96845.13
2022-10-19T20:28:33.332Z,96837.50
2022-10-19T20:31:02.133Z,96840.22
2022-10-19T20:33:30.046Z,96840.00
2022-10-19T20:35:56.381Z,96834.06
2022-10-19T20:38:25.074Z,96842.19
2022-10-19T20:40:52.001Z,96850.00
2022-10-19T20:43:18.321Z,96842.56
2022-10-19T20:45:44.723Z,96846.06
2022-10-19T20:48:11.109Z,96841.28
2022-10-19T20:50:37.475Z,96839.13
2022-10-19T20:53:03.816Z,96841.13
2022-10-19T20:55:36.413Z,96835.97
2022-10-19T20:58:02.793Z,96832.19
2022-10-19T21:00:29.190Z,96832.19
2022-10-19T21:02:55.640Z,96825.59
2022-10-19T21:05:22.444Z,96832.84
2022-10-19T21:07:48.769Z,96830.88
2022-10-19T21:10:15.394Z,96830.88
2022-10-19T21:12:41.909Z,96829.50
2022-10-19T21:15:08.593Z,96832.88
2022-10-19T21:17:35.074Z,96835.34
2022-10-19T21:20:01.581Z,96827.06
2022-10-19T21:22:27.957Z,96831.19
2022-10-19T21:24:54.418Z,96837.81
2022-10-19T21:27:20.731Z,96833.00
2022-10-19T21:29:47.033Z,96836.50
2022-10-19T21:32:13.353Z,96831.53
2022-10-19T21:34:39.696Z,96838.84
2022-10-19T21:37:06.021Z,96838.34
2022-10-19T21:39:32.390Z,96834.53
2022-10-19T21:42:17.602Z,96830.19
2022-10-19T21:44:46.463Z,96834.53
2022-10-19T21:47:31.684Z,96834.19
2022-10-19T21:53:09.231Z,96825.75
2022-10-19T21:55:41.125Z,96823.59
2022-10-19T21:58:07.736Z,96816.94
2022-10-19T22:00:34.257Z,96813.00
2022-10-19T22:03:00.812Z,96799.41
2022-10-19T22:05:39.109Z,96799.91
2022-10-19T22:08:05.874Z,96796.44
2022-10-19T22:10:32.245Z,96806.03
2022-10-19T22:12:59.272Z,96802.69
2022-10-19T22:15:41.332Z,96798.91
2022-10-19T22:18:08.726Z,96804.88
2022-10-19T22:20:37.288Z,96804.91
2022-10-19T22:23:07.515Z,96801.91
2022-10-19T22:25:35.799Z,96799.75
2022-10-19T22:28:02.417Z,96801.72
2022-10-19T22:30:28.834Z,96805.84
2022-10-19T22:32:55.806Z,96792.44
2022-10-19T22:35:25.370Z,96790.28
2022-10-19T22:37:54.923Z,96783.84
2022-10-19T22:40:44.306Z,96775.75
2022-10-19T22:44:10.291Z,96775.56
2022-10-19T22:47:33.005Z,96772.25
2022-10-19T22:50:55.601Z,96772.25
2022-10-19T22:53:23.345Z,96760.50
2022-10-19T22:55:49.847Z,96761.66
2022-10-19T22:58:20.009Z,96751.94
2022-10-19T23:00:46.399Z,96750.91
2022-10-19T23:03:12.708Z,96742.31
2022-10-19T23:05:39.205Z,96746.94
2022-10-19T23:08:05.719Z,96759.84
2022-10-19T23:10:49.807Z,96762.31
2022-10-19T23:13:16.182Z,96765.16
2022-10-19T23:15:44.077Z,96763.94
2022-10-19T23:18:11.406Z,96775.25
2022-10-19T23:20:40.949Z,96771.56
2022-10-19T23:23:25.889Z,96762.28
2022-10-19T23:26:30.150Z,96767.94
2022-10-19T23:29:05.405Z,96766.72
2022-10-19T23:31:36.549Z,96762.78
2022-10-19T23:34:02.903Z,96766.91
2022-10-19T23:36:41.467Z,96767.56
2022-10-19T23:39:10.859Z,96761.78
2022-10-19T23:41:37.212Z,96759.28
2022-10-19T23:44:09.227Z,96757.75
2022-10-19T23:46:42.996Z,96754.94
2022-10-19T23:49:12.314Z,96744.00
2022-10-19T23:51:41.874Z,96747.03
2022-10-19T23:54:08.222Z,96743.06
2022-10-19T23:56:53.560Z,96749.78
2022-10-19T23:59:20.029Z,96740.19
